This is the latest recevied weather packets stored in our database for station/object KM4CBK. If no packets are shown the sender has not sent any weather packets the latest 10 day(s).
| Time | Temp. | Humidity | Pressure | Rain* | Wind** | Luminosity | Snow |
|---|---|---|---|---|---|---|---|
| 1777409639 | 17.22° C | 99% | 1017.7 hPa | 1.78 mm | - | 17 W/m² | - |
| 1777409336 | 16.67° C | 99% | 1018.1 hPa | 1.27 mm | - | 12 W/m² | - |
| 1777409031 | 17.22° C | 99% | 1017.9 hPa | 1.78 mm | - | 12 W/m² | - |
| 1777408729 | 17.22° C | 99% | 1018 hPa | 1.78 mm | - | 13 W/m² | - |
| 1777408424 | 16.67° C | 99% | 1018 hPa | 2.29 mm | - | 16 W/m² | - |
| 1777408124 | 16.67° C | 99% | 1017.5 hPa | 6.6 mm | - | 18 W/m² | - |
| 1777407819 | 16.67° C | 99% | 1017.6 hPa | 8.89 mm | - | 16 W/m² | - |
| 1777407517 | 17.22° C | 99% | 1019 hPa | 4.32 mm | - | 9 W/m² | - |
| 1777407211 | 16.67° C | 99% | 1020.2 hPa | 4.32 mm | - | 5 W/m² | - |
| 1777406907 | 16.67° C | 99% | 1019.8 hPa | 7.11 mm | - | 6 W/m² | - |
| 1777406601 | 17.22° C | 99% | 1019.4 hPa | 11.43 mm | - | 10 W/m² | - |
| 1777406298 | 17.22° C | 99% | 1020 hPa | 8.89 mm | - | 6 W/m² | - |
| 1777405997 | 17.22° C | 99% | 1020.4 hPa | 3.05 mm | - | 5 W/m² | - |
| 1777405693 | 17.22° C | 99% | 1020.4 hPa | 1.78 mm | - | 1 W/m² | - |
| 1777405390 | 17.22° C | 99% | 1019.8 hPa | 1.78 mm | - | 5 W/m² | - |
| 1777405086 | 17.22° C | 99% | 1019.8 hPa | 1.27 mm | - | 5 W/m² | - |
| 1777404780 | 16.67° C | 99% | 1019.4 hPa | 0 mm | - | 12 W/m² | - |
| 1777404477 | 17.22° C | 99% | 1019.4 hPa | 0 mm | - | 17 W/m² | - |
| 1777404173 | 17.22° C | 99% | 1019.4 hPa | 0.51 mm | - | 17 W/m² | - |
| 1777403869 | 17.22° C | 99% | 1019.3 hPa | 3.56 mm | - | 18 W/m² | - |
| 1777403564 | 17.22° C | 99% | 1019.4 hPa | 5.33 mm | - | 13 W/m² | - |
| 1777403258 | 17.22° C | 99% | 1019.9 hPa | 11.43 mm | - | 10 W/m² | - |
| 1777402958 | 17.78° C | 98% | 1019.7 hPa | 17.53 mm | - | 10 W/m² | - |
| 1777402654 | 17.78° C | 96% | 1020.2 hPa | 4.83 mm | - | 7 W/m² | - |
| 1777402353 | 18.33° C | 95% | 1020.7 hPa | 0.51 mm | - | 5 W/m² | - |
* Rain latest hour (hover to see other rain measurements)
** Current wind speed in m/s (hover to see current wind gust speed)